sensor_id;sensor_type;location;lat;lon;timestamp;temperature;humidity
36374;DHT22;22399;51.346;12.372;2023-04-15T00:01:21;7.20;99.90
36374;DHT22;22399;51.346;12.372;2023-04-15T00:03:52;7.20;99.90
36374;DHT22;22399;51.346;12.372;2023-04-15T00:06:20;7.20;99.90
36374;DHT22;22399;51.346;12.372;2023-04-15T00:08:49;7.10;99.90
36374;DHT22;22399;51.346;12.372;2023-04-15T00:11:17;7.10;99.90
36374;DHT22;22399;51.346;12.372;2023-04-15T00:13:46;7.10;99.90
36374;DHT22;22399;51.346;12.372;2023-04-15T00:16:14;7.10;99.90
36374;DHT22;22399;51.346;12.372;2023-04-15T00:18:43;7.20;99.90
36374;DHT22;22399;51.346;12.372;2023-04-15T00:21:13;7.10;99.90
36374;DHT22;22399;51.346;12.372;2023-04-15T00:23:42;7.10;99.90
36374;DHT22;22399;51.346;12.372;2023-04-15T00:26:10;7.10;99.90
36374;DHT22;22399;51.346;12.372;2023-04-15T00:28:40;7.10;99.90
36374;DHT22;22399;51.346;12.372;2023-04-15T00:31:08;7.00;99.90
36374;DHT22;22399;51.346;12.372;2023-04-15T00:33:37;7.00;99.90
36374;DHT22;22399;51.346;12.372;2023-04-15T00:36:06;7.00;99.90
36374;DHT22;22399;51.346;12.372;2023-04-15T00:38:38;7.00;99.90
36374;DHT22;22399;51.346;12.372;2023-04-15T00:41:07;7.00;99.90
36374;DHT22;22399;51.346;12.372;2023-04-15T00:43:36;7.00;99.90
36374;DHT22;22399;51.346;12.372;2023-04-15T00:46:05;7.00;99.90
36374;DHT22;22399;51.346;12.372;2023-04-15T00:48:35;7.00;99.90
36374;DHT22;22399;51.346;12.372;2023-04-15T00:51:05;7.10;99.90
36374;DHT22;22399;51.346;12.372;2023-04-15T00:53:34;7.10;99.90
36374;DHT22;22399;51.346;12.372;2023-04-15T00:56:05;7.10;99.90
36374;DHT22;22399;51.346;12.372;2023-04-15T00:58:33;7.10;99.90
36374;DHT22;22399;51.346;12.372;2023-04-15T01:01:03;7.10;99.90
36374;DHT22;22399;51.346;12.372;2023-04-15T01:03:31;7.00;99.90
36374;DHT22;22399;51.346;12.372;2023-04-15T01:06:00;7.00;99.90
36374;DHT22;22399;51.346;12.372;2023-04-15T01:08:30;7.00;99.90
36374;DHT22;22399;51.346;12.372;2023-04-15T01:11:00;7.10;99.90
36374;DHT22;22399;51.346;12.372;2023-04-15T01:13:33;7.10;99.90
36374;DHT22;22399;51.346;12.372;2023-04-15T01:16:03;7.00;99.90
36374;DHT22;22399;51.346;12.372;2023-04-15T01:18:32;7.00;99.90
36374;DHT22;22399;51.346;12.372;2023-04-15T01:21:00;7.00;99.90
36374;DHT22;22399;51.346;12.372;2023-04-15T01:23:30;7.10;99.90
36374;DHT22;22399;51.346;12.372;2023-04-15T01:26:01;7.10;99.90
36374;DHT22;22399;51.346;12.372;2023-04-15T01:28:30;7.10;99.90
36374;DHT22;22399;51.346;12.372;2023-04-15T01:31:09;7.10;99.90
36374;DHT22;22399;51.346;12.372;2023-04-15T01:33:39;7.00;99.90
36374;DHT22;22399;51.346;12.372;2023-04-15T01:36:09;7.00;99.90
36374;DHT22;22399;51.346;12.372;2023-04-15T01:38:38;7.10;99.90
36374;DHT22;22399;51.346;12.372;2023-04-15T01:41:08;7.10;99.90
36374;DHT22;22399;51.346;12.372;2023-04-15T01:43:36;7.10;99.90
36374;DHT22;22399;51.346;12.372;2023-04-15T01:46:05;7.10;99.90
36374;DHT22;22399;51.346;12.372;2023-04-15T01:48:33;7.00;99.90
36374;DHT22;22399;51.346;12.372;2023-04-15T01:51:03;7.00;99.90
36374;DHT22;22399;51.346;12.372;2023-04-15T01:53:31;7.00;99.90
36374;DHT22;22399;51.346;12.372;2023-04-15T01:56:01;7.00;99.90
36374;DHT22;22399;51.346;12.372;2023-04-15T01:58:31;7.00;99.90
36374;DHT22;22399;51.346;12.372;2023-04-15T02:01:00;7.00;99.90
36374;DHT22;22399;51.346;12.372;2023-04-15T02:03:30;7.00;99.90
36374;DHT22;22399;51.346;12.372;2023-04-15T02:05:59;7.00;99.90
36374;DHT22;22399;51.346;12.372;2023-04-15T02:08:29;6.90;99.90
36374;DHT22;22399;51.346;12.372;2023-04-15T02:10:57;7.00;99.90
36374;DHT22;22399;51.346;12.372;2023-04-15T02:13:27;7.00;99.90
36374;DHT22;22399;51.346;12.372;2023-04-15T02:15:58;6.90;99.90
36374;DHT22;22399;51.346;12.372;2023-04-15T02:18:26;6.90;99.90
36374;DHT22;22399;51.346;12.372;2023-04-15T02:20:55;6.90;99.90
36374;DHT22;22399;51.346;12.372;2023-04-15T02:23:25;6.90;99.90
36374;DHT22;22399;51.346;12.372;2023-04-15T02:25:53;6.80;99.90
36374;DHT22;22399;51.346;12.372;2023-04-15T02:28:22;6.90;99.90
36374;DHT22;22399;51.346;12.372;2023-04-15T02:30:50;6.80;99.90
36374;DHT22;22399;51.346;12.372;2023-04-15T02:33:21;6.80;99.90
36374;DHT22;22399;51.346;12.372;2023-04-15T02:35:51;6.80;99.90
36374;DHT22;22399;51.346;12.372;2023-04-15T02:38:19;6.80;99.90
36374;DHT22;22399;51.346;12.372;2023-04-15T02:40:47;6.80;99.90
36374;DHT22;22399;51.346;12.372;2023-04-15T02:43:17;6.90;99.90
36374;DHT22;22399;51.346;12.372;2023-04-15T02:45:45;6.90;99.90
36374;DHT22;22399;51.346;12.372;2023-04-15T02:48:14;6.90;99.90
36374;DHT22;22399;51.346;12.372;2023-04-15T02:50:47;6.80;99.90
36374;DHT22;22399;51.346;12.372;2023-04-15T02:53:16;6.80;99.90
36374;DHT22;22399;51.346;12.372;2023-04-15T02:55:46;6.80;99.90
36374;DHT22;22399;51.346;12.372;2023-04-15T02:58:14;6.80;99.90
36374;DHT22;22399;51.346;12.372;2023-04-15T03:00:43;6.80;99.90
36374;DHT22;22399;51.346;12.372;2023-04-15T03:03:11;6.80;99.90
36374;DHT22;22399;51.346;12.372;2023-04-15T03:05:41;6.80;99.90
36374;DHT22;22399;51.346;12.372;2023-04-15T03:08:11;6.80;99.90
36374;DHT22;22399;51.346;12.372;2023-04-15T03:10:40;6.80;99.90
36374;DHT22;22399;51.346;12.372;2023-04-15T03:13:09;6.80;99.90
36374;DHT22;22399;51.346;12.372;2023-04-15T03:15:38;6.80;99.90
36374;DHT22;22399;51.346;12.372;2023-04-15T03:18:06;6.80;99.90
36374;DHT22;22399;51.346;12.372;2023-04-15T03:20:35;6.80;99.90
36374;DHT22;22399;51.346;12.372;2023-04-15T03:23:03;6.80;99.90
36374;DHT22;22399;51.346;12.372;2023-04-15T03:25:33;6.80;99.90
36374;DHT22;22399;51.346;12.372;2023-04-15T03:28:05;6.80;99.90
36374;DHT22;22399;51.346;12.372;2023-04-15T03:30:33;6.80;99.90
36374;DHT22;22399;51.346;12.372;2023-04-15T03:33:02;6.80;99.90
36374;DHT22;22399;51.346;12.372;2023-04-15T03:35:31;6.80;99.90
36374;DHT22;22399;51.346;12.372;2023-04-15T03:37:59;6.80;99.90
36374;DHT22;22399;51.346;12.372;2023-04-15T03:40:28;6.80;99.90
36374;DHT22;22399;51.346;12.372;2023-04-15T03:42:58;6.80;99.90
36374;DHT22;22399;51.346;12.372;2023-04-15T03:45:26;6.80;99.90
36374;DHT22;22399;51.346;12.372;2023-04-15T03:47:55;6.80;99.90
36374;DHT22;22399;51.346;12.372;2023-04-15T03:50:42;6.80;99.90
36374;DHT22;22399;51.346;12.372;2023-04-15T03:53:10;6.80;99.90
36374;DHT22;22399;51.346;12.372;2023-04-15T03:55:39;6.80;99.90
36374;DHT22;22399;51.346;12.372;2023-04-15T03:58:08;6.90;99.90
36374;DHT22;22399;51.346;12.372;2023-04-15T04:00:39;6.90;99.90
36374;DHT22;22399;51.346;12.372;2023-04-15T04:03:07;6.80;99.90
36374;DHT22;22399;51.346;12.372;2023-04-15T04:05:36;6.80;99.90
36374;DHT22;22399;51.346;12.372;2023-04-15T04:08:07;6.80;99.90
36374;DHT22;22399;51.346;12.372;2023-04-15T04:10:35;6.80;99.90
36374;DHT22;22399;51.346;12.372;2023-04-15T04:13:04;6.80;99.90
36374;DHT22;22399;51.346;12.372;2023-04-15T04:15:33;6.80;99.90
36374;DHT22;22399;51.346;12.372;2023-04-15T04:18:02;6.80;99.90
36374;DHT22;22399;51.346;12.372;2023-04-15T04:20:30;6.80;99.90
36374;DHT22;22399;51.346;12.372;2023-04-15T04:22:59;6.80;99.90
36374;DHT22;22399;51.346;12.372;2023-04-15T04:25:28;6.80;99.90
36374;DHT22;22399;51.346;12.372;2023-04-15T04:27:56;6.80;99.90
36374;DHT22;22399;51.346;12.372;2023-04-15T04:30:25;6.80;99.90
36374;DHT22;22399;51.346;12.372;2023-04-15T04:32:55;6.80;99.90
36374;DHT22;22399;51.346;12.372;2023-04-15T04:35:23;6.80;99.90
36374;DHT22;22399;51.346;12.372;2023-04-15T04:37:52;6.80;99.90
36374;DHT22;22399;51.346;12.372;2023-04-15T04:40:21;6.80;99.90
36374;DHT22;22399;51.346;12.372;2023-04-15T04:42:49;6.80;99.90
36374;DHT22;22399;51.346;12.372;2023-04-15T04:45:17;6.80;99.90
36374;DHT22;22399;51.346;12.372;2023-04-15T04:47:46;6.80;99.90
36374;DHT22;22399;51.346;12.372;2023-04-15T04:50:16;6.80;99.90
36374;DHT22;22399;51.346;12.372;2023-04-15T04:52:44;6.80;99.90
36374;DHT22;22399;51.346;12.372;2023-04-15T04:55:13;6.90;99.90
36374;DHT22;22399;51.346;12.372;2023-04-15T04:57:41;6.90;99.90
36374;DHT22;22399;51.346;12.372;2023-04-15T05:00:10;6.90;99.90
36374;DHT22;22399;51.346;12.372;2023-04-15T05:02:40;6.90;99.90
36374;DHT22;22399;51.346;12.372;2023-04-15T05:05:10;6.90;99.90
36374;DHT22;22399;51.346;12.372;2023-04-15T05:07:40;6.90;99.90
36374;DHT22;22399;51.346;12.372;2023-04-15T05:10:09;6.90;99.90
36374;DHT22;22399;51.346;12.372;2023-04-15T05:12:38;6.90;99.90
36374;DHT22;22399;51.346;12.372;2023-04-15T05:15:07;6.90;99.90
36374;DHT22;22399;51.346;12.372;2023-04-15T05:17:36;6.90;99.90
36374;DHT22;22399;51.346;12.372;2023-04-15T05:20:06;6.90;99.90
36374;DHT22;22399;51.346;12.372;2023-04-15T05:22:34;7.00;99.90
36374;DHT22;22399;51.346;12.372;2023-04-15T05:25:04;7.00;99.90
36374;DHT22;22399;51.346;12.372;2023-04-15T05:27:33;7.00;99.90
36374;DHT22;22399;51.346;12.372;2023-04-15T05:30:02;7.00;99.90
36374;DHT22;22399;51.346;12.372;2023-04-15T05:32:30;7.00;99.90
36374;DHT22;22399;51.346;12.372;2023-04-15T05:34:59;7.00;99.90
36374;DHT22;22399;51.346;12.372;2023-04-15T05:37:27;7.00;99.90
36374;DHT22;22399;51.346;12.372;2023-04-15T05:39:55;7.00;99.90
36374;DHT22;22399;51.346;12.372;2023-04-15T05:42:25;7.00;99.90
36374;DHT22;22399;51.346;12.372;2023-04-15T05:44:53;7.00;99.90
36374;DHT22;22399;51.346;12.372;2023-04-15T05:47:22;7.00;99.90
36374;DHT22;22399;51.346;12.372;2023-04-15T05:49:50;7.00;99.90
36374;DHT22;22399;51.346;12.372;2023-04-15T05:52:19;7.00;99.90
36374;DHT22;22399;51.346;12.372;2023-04-15T05:54:47;7.00;99.90
36374;DHT22;22399;51.346;12.372;2023-04-15T05:57:16;7.00;99.90
36374;DHT22;22399;51.346;12.372;2023-04-15T05:59:45;7.10;99.90
36374;DHT22;22399;51.346;12.372;2023-04-15T06:02:14;7.10;99.90
36374;DHT22;22399;51.346;12.372;2023-04-15T06:04:42;7.10;99.90
36374;DHT22;22399;51.346;12.372;2023-04-15T06:07:11;7.10;99.90
36374;DHT22;22399;51.346;12.372;2023-04-15T06:09:39;7.10;99.90
36374;DHT22;22399;51.346;12.372;2023-04-15T06:12:08;7.10;99.90
36374;DHT22;22399;51.346;12.372;2023-04-15T06:14:38;7.10;99.90
36374;DHT22;22399;51.346;12.372;2023-04-15T06:17:08;7.10;99.90
36374;DHT22;22399;51.346;12.372;2023-04-15T06:19:37;7.20;99.90
36374;DHT22;22399;51.346;12.372;2023-04-15T06:22:05;7.10;99.90
36374;DHT22;22399;51.346;12.372;2023-04-15T06:24:34;7.20;99.90
36374;DHT22;22399;51.346;12.372;2023-04-15T06:27:03;7.30;99.90
36374;DHT22;22399;51.346;12.372;2023-04-15T06:29:32;7.20;99.90
36374;DHT22;22399;51.346;12.372;2023-04-15T06:32:00;7.20;99.90
36374;DHT22;22399;51.346;12.372;2023-04-15T06:34:30;7.30;99.90
36374;DHT22;22399;51.346;12.372;2023-04-15T06:36:58;7.30;99.90
36374;DHT22;22399;51.346;12.372;2023-04-15T06:39:27;7.30;99.90
36374;DHT22;22399;51.346;12.372;2023-04-15T06:41:56;7.30;99.90
36374;DHT22;22399;51.346;12.372;2023-04-15T06:44:24;7.30;99.90
36374;DHT22;22399;51.346;12.372;2023-04-15T06:46:53;7.40;99.90
36374;DHT22;22399;51.346;12.372;2023-04-15T06:49:22;7.40;99.90
36374;DHT22;22399;51.346;12.372;2023-04-15T06:51:51;7.40;99.90
36374;DHT22;22399;51.346;12.372;2023-04-15T06:54:20;7.40;99.90
36374;DHT22;22399;51.346;12.372;2023-04-15T06:56:48;7.40;99.90
36374;DHT22;22399;51.346;12.372;2023-04-15T06:59:17;7.40;99.90
36374;DHT22;22399;51.346;12.372;2023-04-15T07:01:46;7.40;99.90
36374;DHT22;22399;51.346;12.372;2023-04-15T07:04:15;7.40;99.90
36374;DHT22;22399;51.346;12.372;2023-04-15T07:06:44;7.40;99.90
36374;DHT22;22399;51.346;12.372;2023-04-15T07:09:14;7.50;99.90
36374;DHT22;22399;51.346;12.372;2023-04-15T07:11:42;7.50;99.90
36374;DHT22;22399;51.346;12.372;2023-04-15T07:14:11;7.50;99.90
36374;DHT22;22399;51.346;12.372;2023-04-15T07:16:39;7.50;99.90
36374;DHT22;22399;51.346;12.372;2023-04-15T07:19:08;7.50;99.90
36374;DHT22;22399;51.346;12.372;2023-04-15T07:21:37;7.50;99.90
36374;DHT22;22399;51.346;12.372;2023-04-15T07:24:08;7.50;99.90
36374;DHT22;22399;51.346;12.372;2023-04-15T07:26:37;7.50;99.90
36374;DHT22;22399;51.346;12.372;2023-04-15T07:29:06;7.50;99.90
36374;DHT22;22399;51.346;12.372;2023-04-15T07:31:34;7.50;99.90
36374;DHT22;22399;51.346;12.372;2023-04-15T07:34:05;7.50;99.90
36374;DHT22;22399;51.346;12.372;2023-04-15T07:36:34;7.50;99.90
36374;DHT22;22399;51.346;12.372;2023-04-15T07:39:03;7.60;99.90
36374;DHT22;22399;51.346;12.372;2023-04-15T07:41:31;7.60;99.90
36374;DHT22;22399;51.346;12.372;2023-04-15T07:44:02;7.70;99.90
36374;DHT22;22399;51.346;12.372;2023-04-15T07:46:30;7.70;99.90
36374;DHT22;22399;51.346;12.372;2023-04-15T07:48:58;7.80;99.90
36374;DHT22;22399;51.346;12.372;2023-04-15T07:51:27;7.80;99.90
36374;DHT22;22399;51.346;12.372;2023-04-15T07:53:56;7.80;99.90
36374;DHT22;22399;51.346;12.372;2023-04-15T07:56:24;7.80;99.90
36374;DHT22;22399;51.346;12.372;2023-04-15T07:58:53;7.90;99.90
36374;DHT22;22399;51.346;12.372;2023-04-15T08:01:23;7.90;99.90
36374;DHT22;22399;51.346;12.372;2023-04-15T08:03:52;7.90;99.90
36374;DHT22;22399;51.346;12.372;2023-04-15T08:06:21;7.90;99.90
36374;DHT22;22399;51.346;12.372;2023-04-15T08:08:50;7.90;99.90
36374;DHT22;22399;51.346;12.372;2023-04-15T08:11:20;7.90;99.90
36374;DHT22;22399;51.346;12.372;2023-04-15T08:13:49;7.90;99.90
36374;DHT22;22399;51.346;12.372;2023-04-15T08:16:18;7.90;99.90
36374;DHT22;22399;51.346;12.372;2023-04-15T08:18:50;7.80;99.90
36374;DHT22;22399;51.346;12.372;2023-04-15T08:21:19;7.90;99.90
36374;DHT22;22399;51.346;12.372;2023-04-15T08:23:49;7.90;99.90
36374;DHT22;22399;51.346;12.372;2023-04-15T08:26:18;7.90;99.90
36374;DHT22;22399;51.346;12.372;2023-04-15T08:28:47;8.00;99.90
36374;DHT22;22399;51.346;12.372;2023-04-15T08:31:17;8.00;99.90
36374;DHT22;22399;51.346;12.372;2023-04-15T08:33:46;8.00;99.90
36374;DHT22;22399;51.346;12.372;2023-04-15T08:36:16;8.00;99.90
36374;DHT22;22399;51.346;12.372;2023-04-15T08:38:45;8.00;99.90
36374;DHT22;22399;51.346;12.372;2023-04-15T08:41:19;8.00;99.90
36374;DHT22;22399;51.346;12.372;2023-04-15T08:43:52;8.00;99.90
36374;DHT22;22399;51.346;12.372;2023-04-15T08:46:22;8.10;99.90
36374;DHT22;22399;51.346;12.372;2023-04-15T08:48:51;8.10;99.90
36374;DHT22;22399;51.346;12.372;2023-04-15T08:51:25;8.10;99.90
36374;DHT22;22399;51.346;12.372;2023-04-15T08:53:54;8.10;99.90
36374;DHT22;22399;51.346;12.372;2023-04-15T08:56:24;8.20;99.90
36374;DHT22;22399;51.346;12.372;2023-04-15T08:58:53;8.20;99.90
36374;DHT22;22399;51.346;12.372;2023-04-15T09:01:22;8.20;99.90
36374;DHT22;22399;51.346;12.372;2023-04-15T09:03:51;8.30;99.90
36374;DHT22;22399;51.346;12.372;2023-04-15T09:06:21;8.30;99.90
36374;DHT22;22399;51.346;12.372;2023-04-15T09:08:52;8.40;99.90
36374;DHT22;22399;51.346;12.372;2023-04-15T09:11:21;8.40;99.90
36374;DHT22;22399;51.346;12.372;2023-04-15T09:13:49;8.40;99.90
36374;DHT22;22399;51.346;12.372;2023-04-15T09:16:18;8.50;99.90
36374;DHT22;22399;51.346;12.372;2023-04-15T09:18:46;8.60;99.90
36374;DHT22;22399;51.346;12.372;2023-04-15T09:21:16;8.70;99.90
36374;DHT22;22399;51.346;12.372;2023-04-15T09:23:57;8.70;99.90
36374;DHT22;22399;51.346;12.372;2023-04-15T09:26:33;8.70;99.90
36374;DHT22;22399;51.346;12.372;2023-04-15T09:29:07;8.80;99.90
36374;DHT22;22399;51.346;12.372;2023-04-15T09:31:36;8.70;99.90
36374;DHT22;22399;51.346;12.372;2023-04-15T09:34:05;8.70;99.90
36374;DHT22;22399;51.346;12.372;2023-04-15T09:36:51;8.70;99.90
36374;DHT22;22399;51.346;12.372;2023-04-15T09:39:20;8.80;99.90
36374;DHT22;22399;51.346;12.372;2023-04-15T09:42:05;8.80;99.90
36374;DHT22;22399;51.346;12.372;2023-04-15T09:44:34;8.80;99.90
36374;DHT22;22399;51.346;12.372;2023-04-15T09:47:02;8.90;99.90
36374;DHT22;22399;51.346;12.372;2023-04-15T09:49:31;8.90;99.90
36374;DHT22;22399;51.346;12.372;2023-04-15T09:51:59;8.80;99.90
36374;DHT22;22399;51.346;12.372;2023-04-15T09:54:36;8.90;99.90
36374;DHT22;22399;51.346;12.372;2023-04-15T09:57:06;8.90;99.90
36374;DHT22;22399;51.346;12.372;2023-04-15T09:59:34;8.90;99.90
36374;DHT22;22399;51.346;12.372;2023-04-15T10:02:03;8.90;99.90
36374;DHT22;22399;51.346;12.372;2023-04-15T10:04:34;9.00;99.90
36374;DHT22;22399;51.346;12.372;2023-04-15T10:07:03;9.00;99.90
36374;DHT22;22399;51.346;12.372;2023-04-15T10:09:32;9.00;99.90
36374;DHT22;22399;51.346;12.372;2023-04-15T10:12:04;9.10;99.90
36374;DHT22;22399;51.346;12.372;2023-04-15T10:14:33;9.10;99.90
36374;DHT22;22399;51.346;12.372;2023-04-15T10:17:01;9.10;99.90
36374;DHT22;22399;51.346;12.372;2023-04-15T10:19:30;9.10;99.90
36374;DHT22;22399;51.346;12.372;2023-04-15T10:22:00;9.20;99.90
36374;DHT22;22399;51.346;12.372;2023-04-15T10:24:28;9.30;99.90
36374;DHT22;22399;51.346;12.372;2023-04-15T10:26:58;9.30;99.90
36374;DHT22;22399;51.346;12.372;2023-04-15T10:29:27;9.40;99.90
36374;DHT22;22399;51.346;12.372;2023-04-15T10:31:56;9.40;99.90
36374;DHT22;22399;51.346;12.372;2023-04-15T10:34:26;9.40;99.90
36374;DHT22;22399;51.346;12.372;2023-04-15T10:36:55;9.30;99.90
36374;DHT22;22399;51.346;12.372;2023-04-15T10:39:39;9.30;99.90
36374;DHT22;22399;51.346;12.372;2023-04-15T10:42:09;9.40;99.90
36374;DHT22;22399;51.346;12.372;2023-04-15T10:44:40;9.40;99.90
36374;DHT22;22399;51.346;12.372;2023-04-15T10:47:10;9.50;99.90
36374;DHT22;22399;51.346;12.372;2023-04-15T10:49:42;9.50;99.90
36374;DHT22;22399;51.346;12.372;2023-04-15T10:52:11;9.50;99.90
36374;DHT22;22399;51.346;12.372;2023-04-15T10:54:39;9.50;99.90
36374;DHT22;22399;51.346;12.372;2023-04-15T10:57:08;9.50;99.90
36374;DHT22;22399;51.346;12.372;2023-04-15T11:00:01;9.60;99.90
36374;DHT22;22399;51.346;12.372;2023-04-15T11:02:37;9.60;99.90
36374;DHT22;22399;51.346;12.372;2023-04-15T11:05:06;9.60;99.90
36374;DHT22;22399;51.346;12.372;2023-04-15T11:07:35;9.60;99.90
36374;DHT22;22399;51.346;12.372;2023-04-15T11:10:10;9.70;99.90
36374;DHT22;22399;51.346;12.372;2023-04-15T11:12:59;9.70;99.90
36374;DHT22;22399;51.346;12.372;2023-04-15T11:15:31;9.80;99.90
36374;DHT22;22399;51.346;12.372;2023-04-15T11:18:07;9.80;99.90
36374;DHT22;22399;51.346;12.372;2023-04-15T11:20:37;9.80;99.90
36374;DHT22;22399;51.346;12.372;2023-04-15T11:23:06;9.80;99.90
36374;DHT22;22399;51.346;12.372;2023-04-15T11:25:41;9.90;99.90
36374;DHT22;22399;51.346;12.372;2023-04-15T11:28:11;9.90;99.90
36374;DHT22;22399;51.346;12.372;2023-04-15T11:30:41;9.90;99.90
36374;DHT22;22399;51.346;12.372;2023-04-15T11:33:10;10.00;99.90
36374;DHT22;22399;51.346;12.372;2023-04-15T11:35:40;10.00;99.90
36374;DHT22;22399;51.346;12.372;2023-04-15T11:38:09;9.90;99.90
36374;DHT22;22399;51.346;12.372;2023-04-15T11:40:37;9.90;99.90
36374;DHT22;22399;51.346;12.372;2023-04-15T11:43:06;9.90;99.90
36374;DHT22;22399;51.346;12.372;2023-04-15T11:45:35;9.80;99.90
36374;DHT22;22399;51.346;12.372;2023-04-15T11:48:06;9.80;99.90
36374;DHT22;22399;51.346;12.372;2023-04-15T11:50:34;9.80;99.90
36374;DHT22;22399;51.346;12.372;2023-04-15T11:53:03;9.80;99.90
36374;DHT22;22399;51.346;12.372;2023-04-15T11:55:40;9.80;99.90
36374;DHT22;22399;51.346;12.372;2023-04-15T11:58:09;9.80;99.90
36374;DHT22;22399;51.346;12.372;2023-04-15T12:00:44;9.80;99.90
36374;DHT22;22399;51.346;12.372;2023-04-15T12:03:16;9.80;99.90
36374;DHT22;22399;51.346;12.372;2023-04-15T12:06:04;9.90;99.90
36374;DHT22;22399;51.346;12.372;2023-04-15T12:11:25;9.90;99.90
36374;DHT22;22399;51.346;12.372;2023-04-15T12:13:56;9.90;99.90
36374;DHT22;22399;51.346;12.372;2023-04-15T12:16:26;10.00;99.90
36374;DHT22;22399;51.346;12.372;2023-04-15T12:18:57;10.00;99.90
36374;DHT22;22399;51.346;12.372;2023-04-15T12:21:26;10.10;99.90
36374;DHT22;22399;51.346;12.372;2023-04-15T12:23:55;10.20;99.90
36374;DHT22;22399;51.346;12.372;2023-04-15T12:26:25;10.20;99.90
36374;DHT22;22399;51.346;12.372;2023-04-15T12:28:54;10.30;99.90
36374;DHT22;22399;51.346;12.372;2023-04-15T12:31:23;10.30;99.90
36374;DHT22;22399;51.346;12.372;2023-04-15T12:33:53;10.30;99.90
36374;DHT22;22399;51.346;12.372;2023-04-15T12:36:23;10.30;99.90
36374;DHT22;22399;51.346;12.372;2023-04-15T12:38:52;10.40;99.90
36374;DHT22;22399;51.346;12.372;2023-04-15T12:41:20;10.40;99.90
36374;DHT22;22399;51.346;12.372;2023-04-15T12:43:50;10.40;99.90
36374;DHT22;22399;51.346;12.372;2023-04-15T12:46:18;10.40;99.90
36374;DHT22;22399;51.346;12.372;2023-04-15T12:48:46;10.50;99.90
36374;DHT22;22399;51.346;12.372;2023-04-15T12:51:15;10.50;99.90
36374;DHT22;22399;51.346;12.372;2023-04-15T12:53:44;10.60;99.90
36374;DHT22;22399;51.346;12.372;2023-04-15T12:56:13;10.70;99.90
36374;DHT22;22399;51.346;12.372;2023-04-15T12:58:41;10.70;99.90
36374;DHT22;22399;51.346;12.372;2023-04-15T13:01:10;10.70;99.90
36374;DHT22;22399;51.346;12.372;2023-04-15T13:03:38;10.70;99.90
36374;DHT22;22399;51.346;12.372;2023-04-15T13:06:07;10.60;99.90
36374;DHT22;22399;51.346;12.372;2023-04-15T13:08:35;10.50;99.90
36374;DHT22;22399;51.346;12.372;2023-04-15T13:11:12;10.60;99.90
36374;DHT22;22399;51.346;12.372;2023-04-15T13:13:40;10.50;99.90
36374;DHT22;22399;51.346;12.372;2023-04-15T13:16:09;10.50;99.90
36374;DHT22;22399;51.346;12.372;2023-04-15T13:18:37;10.60;99.90
36374;DHT22;22399;51.346;12.372;2023-04-15T13:21:06;10.50;99.90
36374;DHT22;22399;51.346;12.372;2023-04-15T13:23:36;10.50;99.90
36374;DHT22;22399;51.346;12.372;2023-04-15T13:26:04;10.50;99.90
36374;DHT22;22399;51.346;12.372;2023-04-15T13:28:34;10.50;99.90
36374;DHT22;22399;51.346;12.372;2023-04-15T13:31:03;10.40;99.90
36374;DHT22;22399;51.346;12.372;2023-04-15T13:33:31;10.50;99.90
36374;DHT22;22399;51.346;12.372;2023-04-15T13:35:59;10.50;99.90
36374;DHT22;22399;51.346;12.372;2023-04-15T13:38:27;10.40;99.90
36374;DHT22;22399;51.346;12.372;2023-04-15T13:40:56;10.40;99.90
36374;DHT22;22399;51.346;12.372;2023-04-15T13:43:24;10.40;99.90
36374;DHT22;22399;51.346;12.372;2023-04-15T13:45:54;10.40;99.90
36374;DHT22;22399;51.346;12.372;2023-04-15T13:48:22;10.40;99.90
36374;DHT22;22399;51.346;12.372;2023-04-15T13:50:50;10.40;99.90
36374;DHT22;22399;51.346;12.372;2023-04-15T13:53:18;10.40;99.90
36374;DHT22;22399;51.346;12.372;2023-04-15T13:56:00;10.40;99.90
36374;DHT22;22399;51.346;12.372;2023-04-15T13:58:27;10.50;99.90
36374;DHT22;22399;51.346;12.372;2023-04-15T14:00:57;10.40;99.90
36374;DHT22;22399;51.346;12.372;2023-04-15T14:03:28;10.40;99.90
36374;DHT22;22399;51.346;12.372;2023-04-15T14:05:56;10.40;99.90
36374;DHT22;22399;51.346;12.372;2023-04-15T14:08:25;10.50;99.90
36374;DHT22;22399;51.346;12.372;2023-04-15T14:10:53;10.50;99.90
36374;DHT22;22399;51.346;12.372;2023-04-15T14:13:21;10.50;99.90
36374;DHT22;22399;51.346;12.372;2023-04-15T14:15:49;10.50;99.90
36374;DHT22;22399;51.346;12.372;2023-04-15T14:18:19;10.50;99.90
36374;DHT22;22399;51.346;12.372;2023-04-15T14:20:48;10.50;99.90
36374;DHT22;22399;51.346;12.372;2023-04-15T14:23:16;10.40;99.90
36374;DHT22;22399;51.346;12.372;2023-04-15T14:25:44;10.40;99.90
36374;DHT22;22399;51.346;12.372;2023-04-15T14:28:14;10.30;99.90
36374;DHT22;22399;51.346;12.372;2023-04-15T14:30:42;10.30;99.90
36374;DHT22;22399;51.346;12.372;2023-04-15T14:33:11;10.30;99.90
36374;DHT22;22399;51.346;12.372;2023-04-15T14:35:40;10.30;99.90
36374;DHT22;22399;51.346;12.372;2023-04-15T14:38:08;10.30;99.90
36374;DHT22;22399;51.346;12.372;2023-04-15T14:40:37;10.30;99.90
36374;DHT22;22399;51.346;12.372;2023-04-15T14:43:05;10.40;99.90
36374;DHT22;22399;51.346;12.372;2023-04-15T14:45:34;10.30;99.90
36374;DHT22;22399;51.346;12.372;2023-04-15T14:48:06;10.30;99.90
36374;DHT22;22399;51.346;12.372;2023-04-15T14:50:36;10.40;99.90
36374;DHT22;22399;51.346;12.372;2023-04-15T14:53:06;10.40;99.90
36374;DHT22;22399;51.346;12.372;2023-04-15T14:55:34;10.40;99.90
36374;DHT22;22399;51.346;12.372;2023-04-15T14:58:02;10.50;99.90
36374;DHT22;22399;51.346;12.372;2023-04-15T15:00:30;10.50;99.90
36374;DHT22;22399;51.346;12.372;2023-04-15T15:02:59;10.50;99.90
36374;DHT22;22399;51.346;12.372;2023-04-15T15:05:27;10.50;99.90
36374;DHT22;22399;51.346;12.372;2023-04-15T15:07:56;10.50;99.90
36374;DHT22;22399;51.346;12.372;2023-04-15T15:10:25;10.60;99.90
36374;DHT22;22399;51.346;12.372;2023-04-15T15:13:14;10.60;99.90
36374;DHT22;22399;51.346;12.372;2023-04-15T15:15:42;10.60;99.90
36374;DHT22;22399;51.346;12.372;2023-04-15T15:18:10;10.60;99.90
36374;DHT22;22399;51.346;12.372;2023-04-15T15:20:39;10.70;99.90
36374;DHT22;22399;51.346;12.372;2023-04-15T15:23:07;10.70;99.90
36374;DHT22;22399;51.346;12.372;2023-04-15T15:25:37;10.60;99.90
36374;DHT22;22399;51.346;12.372;2023-04-15T15:28:05;10.60;99.90
36374;DHT22;22399;51.346;12.372;2023-04-15T15:30:34;10.60;99.90
36374;DHT22;22399;51.346;12.372;2023-04-15T15:33:02;10.60;99.90
36374;DHT22;22399;51.346;12.372;2023-04-15T15:35:30;10.60;99.90
36374;DHT22;22399;51.346;12.372;2023-04-15T15:37:59;10.60;99.90
36374;DHT22;22399;51.346;12.372;2023-04-15T15:40:27;10.60;99.90
36374;DHT22;22399;51.346;12.372;2023-04-15T15:42:56;10.60;99.90
36374;DHT22;22399;51.346;12.372;2023-04-15T15:45:25;10.60;99.90